sensor_id;sensor_type;location;lat;lon;timestamp;pressure;altitude;pressure_sealevel;temperature;humidity
66484;BME280;53299;52.160;7.556;2022-10-31T00:00:00;101633.41;;;19.08;60.72
66484;BME280;53299;52.160;7.556;2022-10-31T00:02:25;101636.88;;;19.09;60.71
66484;BME280;53299;52.160;7.556;2022-10-31T00:04:50;101635.06;;;19.09;60.72
66484;BME280;53299;52.160;7.556;2022-10-31T00:07:16;101635.22;;;19.08;60.72
66484;BME280;53299;52.160;7.556;2022-10-31T00:09:41;101638.72;;;19.08;60.73
66484;BME280;53299;52.160;7.556;2022-10-31T00:12:06;101633.41;;;19.08;60.76
66484;BME280;53299;52.160;7.556;2022-10-31T00:14:31;101637.88;;;19.08;60.72
66484;BME280;53299;52.160;7.556;2022-10-31T00:16:57;101638.72;;;19.08;60.94
66484;BME280;53299;52.160;7.556;2022-10-31T00:19:22;101631.75;;;19.07;60.76
66484;BME280;53299;52.160;7.556;2022-10-31T00:21:47;101646.69;;;19.08;60.73
66484;BME280;53299;52.160;7.556;2022-10-31T00:24:12;101652.03;;;19.08;60.71
66484;BME280;53299;52.160;7.556;2022-10-31T00:26:37;101644.03;;;19.08;60.77
66484;BME280;53299;52.160;7.556;2022-10-31T00:29:03;101651.19;;;19.08;60.71
66484;BME280;53299;52.160;7.556;2022-10-31T00:31:29;101653.03;;;19.07;60.66
66484;BME280;53299;52.160;7.556;2022-10-31T00:33:54;101645.03;;;19.07;60.77
66484;BME280;53299;52.160;7.556;2022-10-31T00:36:19;101650.38;;;19.07;60.71
66484;BME280;53299;52.160;7.556;2022-10-31T00:38:46;101647.72;;;19.07;60.70
66484;BME280;53299;52.160;7.556;2022-10-31T00:41:13;101642.38;;;19.07;60.72
66484;BME280;53299;52.160;7.556;2022-10-31T00:43:38;101653.03;;;19.07;60.72
66484;BME280;53299;52.160;7.556;2022-10-31T00:46:04;101653.03;;;19.07;60.79
66484;BME280;53299;52.160;7.556;2022-10-31T00:48:29;101655.69;;;19.07;60.77
66484;BME280;53299;52.160;7.556;2022-10-31T00:50:55;101643.34;;;19.06;60.70
66484;BME280;53299;52.160;7.556;2022-10-31T00:53:20;101650.38;;;19.07;60.76
66484;BME280;53299;52.160;7.556;2022-10-31T00:55:45;101648.53;;;19.08;60.67
66484;BME280;53299;52.160;7.556;2022-10-31T00:58:11;101651.19;;;19.08;60.63
66484;BME280;53299;52.160;7.556;2022-10-31T01:00:36;101650.38;;;19.07;60.77
66484;BME280;53299;52.160;7.556;2022-10-31T01:03:02;101658.34;;;19.07;60.68
66484;BME280;53299;52.160;7.556;2022-10-31T01:05:27;101658.34;;;19.07;60.76
66484;BME280;53299;52.160;7.556;2022-10-31T01:07:52;101659.31;;;19.06;60.75
66484;BME280;53299;52.160;7.556;2022-10-31T01:10:17;101653.03;;;19.07;60.71
66484;BME280;53299;52.160;7.556;2022-10-31T01:12:45;101658.34;;;19.07;60.64
66484;BME280;53299;52.160;7.556;2022-10-31T01:15:12;101656.66;;;19.06;60.63
66484;BME280;53299;52.160;7.556;2022-10-31T01:17:38;101657.50;;;19.07;60.69
66484;BME280;53299;52.160;7.556;2022-10-31T01:20:05;101657.50;;;19.07;60.70
66484;BME280;53299;52.160;7.556;2022-10-31T01:22:31;101657.50;;;19.07;60.59
66484;BME280;53299;52.160;7.556;2022-10-31T01:24:56;101662.81;;;19.07;60.64
66484;BME280;53299;52.160;7.556;2022-10-31T01:27:22;101672.63;;;19.06;60.70
66484;BME280;53299;52.160;7.556;2022-10-31T01:29:47;101670.78;;;19.07;60.69
66484;BME280;53299;52.160;7.556;2022-10-31T01:32:12;101666.34;;;19.07;60.57
66484;BME280;53299;52.160;7.556;2022-10-31T01:34:38;101665.47;;;19.07;60.63
66484;BME280;53299;52.160;7.556;2022-10-31T01:37:03;101656.66;;;19.06;60.65
66484;BME280;53299;52.160;7.556;2022-10-31T01:39:28;101656.66;;;19.06;60.73
66484;BME280;53299;52.160;7.556;2022-10-31T01:41:54;101657.50;;;19.07;60.58
66484;BME280;53299;52.160;7.556;2022-10-31T01:49:18;101664.66;;;19.06;60.58
66484;BME280;53299;52.160;7.556;2022-10-31T01:51:54;101663.81;;;19.06;60.56
66484;BME280;53299;52.160;7.556;2022-10-31T01:54:23;101659.31;;;19.06;60.67
66484;BME280;53299;52.160;7.556;2022-10-31T01:56:52;101663.81;;;19.06;60.56
66484;BME280;53299;52.160;7.556;2022-10-31T01:59:21;101660.34;;;19.05;60.59
66484;BME280;53299;52.160;7.556;2022-10-31T02:01:48;101662.16;;;19.05;60.56
66484;BME280;53299;52.160;7.556;2022-10-31T02:04:15;101656.66;;;19.06;60.49
66484;BME280;53299;52.160;7.556;2022-10-31T02:06:50;101668.31;;;19.05;60.58
66484;BME280;53299;52.160;7.556;2022-10-31T02:09:19;101671.81;;;19.06;60.65
66484;BME280;53299;52.160;7.556;2022-10-31T02:11:44;101666.47;;;19.06;60.47
66484;BME280;53299;52.160;7.556;2022-10-31T02:14:10;101669.13;;;19.06;60.62
66484;BME280;53299;52.160;7.556;2022-10-31T02:16:35;101670.97;;;19.05;60.48
66484;BME280;53299;52.160;7.556;2022-10-31T02:19:01;101663.97;;;19.04;60.49
66484;BME280;53299;52.160;7.556;2022-10-31T02:21:31;101659.31;;;19.06;60.52
66484;BME280;53299;52.160;7.556;2022-10-31T02:32:46;101663.00;;;19.05;60.52
66484;BME280;53299;52.160;7.556;2022-10-31T02:35:28;101666.63;;;19.04;60.42
66484;BME280;53299;52.160;7.556;2022-10-31T02:41:26;101670.16;;;19.05;60.51
66484;BME280;53299;52.160;7.556;2022-10-31T02:49:20;101679.09;;;19.03;60.39
66484;BME280;53299;52.160;7.556;2022-10-31T02:51:47;101679.09;;;19.03;60.49
66484;BME280;53299;52.160;7.556;2022-10-31T02:54:18;101690.56;;;19.04;60.53
66484;BME280;53299;52.160;7.556;2022-10-31T02:56:43;101679.09;;;19.03;60.36
66484;BME280;53299;52.160;7.556;2022-10-31T02:59:08;101686.25;;;19.03;60.38
66484;BME280;53299;52.160;7.556;2022-10-31T03:12:42;101679.94;;;19.04;60.39
66484;BME280;53299;52.160;7.556;2022-10-31T03:15:29;101677.28;;;19.04;60.34
66484;BME280;53299;52.160;7.556;2022-10-31T03:18:13;101668.47;;;19.03;60.11
66484;BME280;53299;52.160;7.556;2022-10-31T03:20:44;101674.59;;;19.04;60.24
66484;BME280;53299;52.160;7.556;2022-10-31T03:23:14;101671.94;;;19.04;60.24
66484;BME280;53299;52.160;7.556;2022-10-31T03:25:43;101667.63;;;19.03;60.30
66484;BME280;53299;52.160;7.556;2022-10-31T03:28:10;101663.97;;;19.04;60.27
66484;BME280;53299;52.160;7.556;2022-10-31T03:30:38;101666.63;;;19.04;60.24
66484;BME280;53299;52.160;7.556;2022-10-31T03:33:10;101673.78;;;19.03;60.21
66484;BME280;53299;52.160;7.556;2022-10-31T03:35:36;101678.13;;;19.05;60.21
66484;BME280;53299;52.160;7.556;2022-10-31T03:38:05;101677.28;;;19.04;60.21
66484;BME280;53299;52.160;7.556;2022-10-31T03:40:32;101683.44;;;19.05;60.15
66484;BME280;53299;52.160;7.556;2022-10-31T03:43:08;101674.59;;;19.04;60.24
66484;BME280;53299;52.160;7.556;2022-10-31T03:45:40;101675.47;;;19.05;60.12
66484;BME280;53299;52.160;7.556;2022-10-31T03:48:06;101685.25;;;19.04;60.17
66484;BME280;53299;52.160;7.556;2022-10-31T03:50:39;101684.28;;;19.05;60.19
66484;BME280;53299;52.160;7.556;2022-10-31T03:53:24;101673.78;;;19.03;60.11
66484;BME280;53299;52.160;7.556;2022-10-31T03:55:57;101673.78;;;19.03;60.16
66484;BME280;53299;52.160;7.556;2022-10-31T03:58:28;101677.28;;;19.04;60.07
66484;BME280;53299;52.160;7.556;2022-10-31T04:00:56;101686.94;;;19.05;60.15
66484;BME280;53299;52.160;7.556;2022-10-31T04:03:26;101679.09;;;19.03;60.11
66484;BME280;53299;52.160;7.556;2022-10-31T04:05:55;101679.09;;;19.03;60.06
66484;BME280;53299;52.160;7.556;2022-10-31T04:08:25;101674.59;;;19.04;60.12
66484;BME280;53299;52.160;7.556;2022-10-31T04:10:52;101679.09;;;19.03;60.08
66484;BME280;53299;52.160;7.556;2022-10-31T04:13:23;101673.78;;;19.03;60.04
66484;BME280;53299;52.160;7.556;2022-10-31T04:15:52;101679.09;;;19.03;60.03
66484;BME280;53299;52.160;7.556;2022-10-31T04:18:18;101673.78;;;19.03;60.03
66484;BME280;53299;52.160;7.556;2022-10-31T04:20:44;101674.59;;;19.04;59.97
66484;BME280;53299;52.160;7.556;2022-10-31T04:23:38;101683.59;;;19.03;60.02
66484;BME280;53299;52.160;7.556;2022-10-31T04:26:04;101685.25;;;19.04;60.06
66484;BME280;53299;52.160;7.556;2022-10-31T04:28:29;101688.78;;;19.05;60.01
66484;BME280;53299;52.160;7.556;2022-10-31T04:30:54;101688.91;;;19.03;59.97
66484;BME280;53299;52.160;7.556;2022-10-31T04:33:20;101683.59;;;19.03;59.93
66484;BME280;53299;52.160;7.556;2022-10-31T04:35:45;101686.25;;;19.03;60.09
66484;BME280;53299;52.160;7.556;2022-10-31T04:38:11;101686.25;;;19.03;60.06
66484;BME280;53299;52.160;7.556;2022-10-31T04:40:36;101684.41;;;19.03;59.93
66484;BME280;53299;52.160;7.556;2022-10-31T04:43:01;101683.59;;;19.03;59.87
66484;BME280;53299;52.160;7.556;2022-10-31T04:45:27;101684.41;;;19.03;60.05
66484;BME280;53299;52.160;7.556;2022-10-31T04:47:52;101683.59;;;19.03;59.92
66484;BME280;53299;52.160;7.556;2022-10-31T04:50:17;101691.72;;;19.01;59.93
66484;BME280;53299;52.160;7.556;2022-10-31T04:52:44;101685.44;;;19.02;59.91
66484;BME280;53299;52.160;7.556;2022-10-31T04:55:10;101686.25;;;19.03;59.96
66484;BME280;53299;52.160;7.556;2022-10-31T04:57:42;101683.59;;;19.03;59.91
66484;BME280;53299;52.160;7.556;2022-10-31T05:00:09;101686.25;;;19.03;59.86
66484;BME280;53299;52.160;7.556;2022-10-31T05:02:34;101683.59;;;19.03;59.85
66484;BME280;53299;52.160;7.556;2022-10-31T05:05:06;101684.41;;;19.03;59.84
66484;BME280;53299;52.160;7.556;2022-10-31T05:07:32;101678.41;;;19.01;59.63
66484;BME280;53299;52.160;7.556;2022-10-31T05:09:57;101670.44;;;19.01;59.73
66484;BME280;53299;52.160;7.556;2022-10-31T05:12:22;101672.13;;;19.02;59.82
66484;BME280;53299;52.160;7.556;2022-10-31T05:14:47;101665.13;;;19.01;59.42
66484;BME280;53299;52.160;7.556;2022-10-31T05:17:13;101674.78;;;19.02;59.66
66484;BME280;53299;52.160;7.556;2022-10-31T05:19:38;101672.13;;;19.02;59.77
66484;BME280;53299;52.160;7.556;2022-10-31T05:22:03;101672.25;;;19.01;59.63
66484;BME280;53299;52.160;7.556;2022-10-31T05:24:28;101664.28;;;19.01;59.76
66484;BME280;53299;52.160;7.556;2022-10-31T05:26:54;101671.44;;;19.00;59.78
66484;BME280;53299;52.160;7.556;2022-10-31T05:29:19;101669.59;;;19.01;59.91
66484;BME280;53299;52.160;7.556;2022-10-31T05:31:44;101663.47;;;19.00;59.70
66484;BME280;53299;52.160;7.556;2022-10-31T05:34:09;101660.66;;;19.02;59.64
66484;BME280;53299;52.160;7.556;2022-10-31T05:36:35;101664.28;;;19.01;59.76
66484;BME280;53299;52.160;7.556;2022-10-31T05:39:00;101664.28;;;19.01;59.70
66484;BME280;53299;52.160;7.556;2022-10-31T05:41:25;101661.63;;;19.01;59.71
66484;BME280;53299;52.160;7.556;2022-10-31T05:43:50;101660.78;;;19.00;59.61
66484;BME280;53299;52.160;7.556;2022-10-31T05:46:15;101653.66;;;19.01;59.58
66484;BME280;53299;52.160;7.556;2022-10-31T05:48:41;101651.97;;;19.00;59.58
66484;BME280;53299;52.160;7.556;2022-10-31T05:51:06;101656.31;;;19.01;59.28
66484;BME280;53299;52.160;7.556;2022-10-31T05:53:31;101661.63;;;19.01;59.54
66484;BME280;53299;52.160;7.556;2022-10-31T05:55:56;101662.63;;;19.00;59.66
66484;BME280;53299;52.160;7.556;2022-10-31T05:58:22;101664.44;;;18.99;59.64
66484;BME280;53299;52.160;7.556;2022-10-31T06:00:47;101662.63;;;19.00;59.51
66484;BME280;53299;52.160;7.556;2022-10-31T06:03:12;101667.09;;;18.99;59.37
66484;BME280;53299;52.160;7.556;2022-10-31T06:05:37;101664.44;;;18.99;59.42
66484;BME280;53299;52.160;7.556;2022-10-31T06:08:03;101660.94;;;18.99;59.51
66484;BME280;53299;52.160;7.556;2022-10-31T06:10:28;101662.63;;;19.00;59.44
66484;BME280;53299;52.160;7.556;2022-10-31T06:12:53;101664.44;;;18.99;59.46
66484;BME280;53299;52.160;7.556;2022-10-31T06:15:19;101669.75;;;18.99;59.40
66484;BME280;53299;52.160;7.556;2022-10-31T06:17:44;101668.91;;;18.99;59.44
66484;BME280;53299;52.160;7.556;2022-10-31T06:20:09;101670.63;;;19.00;59.39
66484;BME280;53299;52.160;7.556;2022-10-31T06:22:35;101670.75;;;18.98;59.41
66484;BME280;53299;52.160;7.556;2022-10-31T06:25:00;101675.06;;;18.99;59.27
66484;BME280;53299;52.160;7.556;2022-10-31T06:27:25;101676.06;;;18.98;59.36
66484;BME280;53299;52.160;7.556;2022-10-31T06:29:51;101676.91;;;18.99;59.40
66484;BME280;53299;52.160;7.556;2022-10-31T06:32:17;101671.59;;;18.99;59.54
66484;BME280;53299;52.160;7.556;2022-10-31T06:34:43;101668.91;;;18.99;59.25
66484;BME280;53299;52.160;7.556;2022-10-31T06:37:10;101661.94;;;18.98;59.31
66484;BME280;53299;52.160;7.556;2022-10-31T06:39:35;101667.25;;;18.98;59.26
66484;BME280;53299;52.160;7.556;2022-10-31T06:42:01;101664.59;;;18.98;59.20
66484;BME280;53299;52.160;7.556;2022-10-31T06:44:26;101659.28;;;18.98;59.31
66484;BME280;53299;52.160;7.556;2022-10-31T06:46:51;101672.59;;;18.98;59.23
66484;BME280;53299;52.160;7.556;2022-10-31T06:49:17;101673.41;;;18.98;59.25
66484;BME280;53299;52.160;7.556;2022-10-31T06:51:42;101676.06;;;18.98;59.25
66484;BME280;53299;52.160;7.556;2022-10-31T06:54:08;101674.41;;;18.97;59.12
66484;BME280;53299;52.160;7.556;2022-10-31T06:56:33;101682.22;;;18.99;59.28
66484;BME280;53299;52.160;7.556;2022-10-31T06:58:58;101683.22;;;18.98;59.29
66484;BME280;53299;52.160;7.556;2022-10-31T07:01:24;101688.56;;;18.98;59.11
66484;BME280;53299;52.160;7.556;2022-10-31T07:03:49;101693.88;;;18.98;58.96
66484;BME280;53299;52.160;7.556;2022-10-31T07:06:14;101690.38;;;18.97;59.12
66484;BME280;53299;52.160;7.556;2022-10-31T07:08:40;101693.88;;;18.98;59.11
66484;BME280;53299;52.160;7.556;2022-10-31T07:11:05;101689.53;;;18.97;59.07
66484;BME280;53299;52.160;7.556;2022-10-31T07:13:30;101690.38;;;18.97;59.11
66484;BME280;53299;52.160;7.556;2022-10-31T07:16:00;101689.53;;;18.97;59.04
66484;BME280;53299;52.160;7.556;2022-10-31T07:18:26;101691.22;;;18.98;58.96
66484;BME280;53299;52.160;7.556;2022-10-31T07:20:52;101694.84;;;18.97;59.04
66484;BME280;53299;52.160;7.556;2022-10-31T07:23:17;101705.47;;;18.97;58.93
66484;BME280;53299;52.160;7.556;2022-10-31T07:25:42;101709.97;;;18.96;59.08
66484;BME280;53299;52.160;7.556;2022-10-31T07:28:08;101696.53;;;18.98;59.11
66484;BME280;53299;52.160;7.556;2022-10-31T07:30:33;101701.84;;;18.98;58.99
66484;BME280;53299;52.160;7.556;2022-10-31T07:32:59;101696.69;;;18.96;59.01
66484;BME280;53299;52.160;7.556;2022-10-31T07:35:27;101695.03;;;18.95;58.96
66484;BME280;53299;52.160;7.556;2022-10-31T07:37:53;101693.19;;;18.96;58.80
66484;BME280;53299;52.160;7.556;2022-10-31T07:40:19;101695.84;;;18.96;58.98
66484;BME280;53299;52.160;7.556;2022-10-31T07:42:46;101696.69;;;18.96;58.98
66484;BME280;53299;52.160;7.556;2022-10-31T07:45:17;101701.16;;;18.96;58.91
66484;BME280;53299;52.160;7.556;2022-10-31T07:47:48;101693.19;;;18.96;58.91
66484;BME280;53299;52.160;7.556;2022-10-31T07:50:18;101703.81;;;18.96;58.91
66484;BME280;53299;52.160;7.556;2022-10-31T07:52:44;101709.16;;;18.96;58.86
66484;BME280;53299;52.160;7.556;2022-10-31T07:55:10;101709.16;;;18.96;58.86
66484;BME280;53299;52.160;7.556;2022-10-31T07:57:35;101719.78;;;18.96;58.91
66484;BME280;53299;52.160;7.556;2022-10-31T08:00:01;101716.31;;;18.95;58.93
66484;BME280;53299;52.160;7.556;2022-10-31T08:02:26;101713.63;;;18.95;58.84
66484;BME280;53299;52.160;7.556;2022-10-31T08:04:52;101703.81;;;18.96;58.82
66484;BME280;53299;52.160;7.556;2022-10-31T08:07:17;101698.50;;;18.96;58.82
66484;BME280;53299;52.160;7.556;2022-10-31T08:09:43;101701.31;;;18.94;58.77
66484;BME280;53299;52.160;7.556;2022-10-31T08:12:08;101702.16;;;18.95;58.73
66484;BME280;53299;52.160;7.556;2022-10-31T08:14:33;101702.16;;;18.95;58.75
66484;BME280;53299;52.160;7.556;2022-10-31T08:16:59;101696.84;;;18.95;58.71
66484;BME280;53299;52.160;7.556;2022-10-31T08:19:24;101701.31;;;18.94;58.74
66484;BME280;53299;52.160;7.556;2022-10-31T08:21:53;101690.66;;;18.94;58.78
66484;BME280;53299;52.160;7.556;2022-10-31T08:24:18;101687.19;;;18.94;58.77
66484;BME280;53299;52.160;7.556;2022-10-31T08:26:44;101688.00;;;18.94;58.69
66484;BME280;53299;52.160;7.556;2022-10-31T08:29:09;101686.22;;;18.95;58.77
66484;BME280;53299;52.160;7.556;2022-10-31T08:31:35;101687.19;;;18.94;58.80
66484;BME280;53299;52.160;7.556;2022-10-31T08:34:00;101689.84;;;18.94;58.85
66484;BME280;53299;52.160;7.556;2022-10-31T08:36:27;101681.84;;;18.94;58.69
66484;BME280;53299;52.160;7.556;2022-10-31T08:38:52;101688.00;;;18.94;58.76
66484;BME280;53299;52.160;7.556;2022-10-31T08:41:17;101678.38;;;18.93;58.81
66484;BME280;53299;52.160;7.556;2022-10-31T08:43:42;101673.88;;;18.94;58.74
66484;BME280;53299;52.160;7.556;2022-10-31T08:46:08;101676.53;;;18.94;58.80
66484;BME280;53299;52.160;7.556;2022-10-31T08:48:33;101676.72;;;18.92;58.75
66484;BME280;53299;52.160;7.556;2022-10-31T08:50:59;101677.38;;;18.94;58.80
66484;BME280;53299;52.160;7.556;2022-10-31T08:53:25;101686.34;;;18.93;58.74
66484;BME280;53299;52.160;7.556;2022-10-31T08:55:50;101689.00;;;18.93;58.80
66484;BME280;53299;52.160;7.556;2022-10-31T08:58:17;101688.19;;;18.93;58.85
66484;BME280;53299;52.160;7.556;2022-10-31T09:00:44;101683.69;;;18.93;58.77
66484;BME280;53299;52.160;7.556;2022-10-31T09:03:15;101673.06;;;18.93;58.85
66484;BME280;53299;52.160;7.556;2022-10-31T09:05:40;101665.06;;;18.93;58.78
66484;BME280;53299;52.160;7.556;2022-10-31T09:08:06;101660.75;;;18.92;58.81
66484;BME280;53299;52.160;7.556;2022-10-31T09:10:34;101659.75;;;18.93;58.71
66484;BME280;53299;52.160;7.556;2022-10-31T09:13:07;101654.44;;;18.93;58.92
66484;BME280;53299;52.160;7.556;2022-10-31T09:15:37;101657.09;;;18.93;58.80
66484;BME280;53299;52.160;7.556;2022-10-31T09:18:04;101651.78;;;18.93;58.87
66484;BME280;53299;52.160;7.556;2022-10-31T09:20:30;101655.25;;;18.94;58.88
66484;BME280;53299;52.160;7.556;2022-10-31T09:23:06;101656.25;;;18.93;58.85
66484;BME280;53299;52.160;7.556;2022-10-31T09:25:33;101655.25;;;18.94;59.12
66484;BME280;53299;52.160;7.556;2022-10-31T09:28:00;101667.72;;;18.93;59.00
66484;BME280;53299;52.160;7.556;2022-10-31T09:30:27;101664.25;;;18.93;58.79
66484;BME280;53299;52.160;7.556;2022-10-31T09:33:00;101668.56;;;18.94;58.92
66484;BME280;53299;52.160;7.556;2022-10-31T09:35:26;101665.91;;;18.94;58.92
66484;BME280;53299;52.160;7.556;2022-10-31T09:37:58;101671.22;;;18.94;59.01
66484;BME280;53299;52.160;7.556;2022-10-31T09:40:29;101666.06;;;18.92;59.04
66484;BME280;53299;52.160;7.556;2022-10-31T09:45:41;101665.22;;;18.92;58.96
66484;BME280;53299;52.160;7.556;2022-10-31T09:50:48;101656.25;;;18.93;59.10
66484;BME280;53299;52.160;7.556;2022-10-31T09:55:57;101660.75;;;18.92;59.26
66484;BME280;53299;52.160;7.556;2022-10-31T09:58:25;101656.25;;;18.93;59.09
66484;BME280;53299;52.160;7.556;2022-10-31T10:00:53;101654.56;;;18.92;59.01
66484;BME280;53299;52.160;7.556;2022-10-31T10:03:42;101656.25;;;18.93;59.18
66484;BME280;53299;52.160;7.556;2022-10-31T10:06:11;101653.59;;;18.93;59.15
66484;BME280;53299;52.160;7.556;2022-10-31T10:08:39;101642.13;;;18.92;59.20
66484;BME280;53299;52.160;7.556;2022-10-31T10:13:56;101634.97;;;18.93;59.18
66484;BME280;53299;52.160;7.556;2022-10-31T10:16:43;101633.28;;;18.92;59.10
66484;BME280;53299;52.160;7.556;2022-10-31T10:19:25;101631.50;;;18.92;59.19
66484;BME280;53299;52.160;7.556;2022-10-31T10:22:05;101642.97;;;18.93;59.31
66484;BME280;53299;52.160;7.556;2022-10-31T10:25:08;101638.59;;;18.92;59.08
66484;BME280;53299;52.160;7.556;2022-10-31T10:30:28;101633.28;;;18.92;59.28
66484;BME280;53299;52.160;7.556;2022-10-31T10:33:03;101626.31;;;18.91;59.16
66484;BME280;53299;52.160;7.556;2022-10-31T10:35:33;101630.63;;;18.92;59.32
66484;BME280;53299;52.160;7.556;2022-10-31T10:38:12;101636.94;;;18.91;59.33
66484;BME280;53299;52.160;7.556;2022-10-31T10:40:39;101627.13;;;18.91;59.32
66484;BME280;53299;52.160;7.556;2022-10-31T10:45:29;101617.31;;;18.92;59.33
66484;BME280;53299;52.160;7.556;2022-10-31T10:48:04;101617.31;;;18.92;59.42
66484;BME280;53299;52.160;7.556;2022-10-31T10:50:36;101622.66;;;18.92;59.44
66484;BME280;53299;52.160;7.556;2022-10-31T10:56:16;101613.69;;;18.93;59.50
66484;BME280;53299;52.160;7.556;2022-10-31T10:58:45;101612.00;;;18.92;59.58
66484;BME280;53299;52.160;7.556;2022-10-31T11:01:12;101608.38;;;18.93;59.68
66484;BME280;53299;52.160;7.556;2022-10-31T11:03:38;101599.72;;;18.91;59.57
66484;BME280;53299;52.160;7.556;2022-10-31T11:06:04;101596.03;;;18.92;59.42
66484;BME280;53299;52.160;7.556;2022-10-31T11:08:34;101578.44;;;18.91;59.43
66484;BME280;53299;52.160;7.556;2022-10-31T11:11:23;101571.13;;;18.93;59.58
66484;BME280;53299;52.160;7.556;2022-10-31T11:13:55;101561.47;;;18.92;59.59
66484;BME280;53299;52.160;7.556;2022-10-31T11:16:35;101564.13;;;18.92;59.55
66484;BME280;53299;52.160;7.556;2022-10-31T11:19:16;101554.50;;;18.91;59.54
66484;BME280;53299;52.160;7.556;2022-10-31T11:21:42;101552.66;;;18.91;59.54
66484;BME280;53299;52.160;7.556;2022-10-31T11:26:37;101544.69;;;18.91;59.66
66484;BME280;53299;52.160;7.556;2022-10-31T11:29:04;101536.69;;;18.91;59.59
66484;BME280;53299;52.160;7.556;2022-10-31T11:31:30;101533.88;;;18.93;59.65
66484;BME280;53299;52.160;7.556;2022-10-31T11:34:00;101528.72;;;18.91;59.73
66484;BME280;53299;52.160;7.556;2022-10-31T11:36:29;101524.22;;;18.92;59.70
66484;BME280;53299;52.160;7.556;2022-10-31T11:38:55;101523.25;;;18.93;59.87
66484;BME280;53299;52.160;7.556;2022-10-31T11:41:29;101520.72;;;18.91;59.77
66484;BME280;53299;52.160;7.556;2022-10-31T11:43:58;101516.25;;;18.92;59.76
66484;BME280;53299;52.160;7.556;2022-10-31T11:46:34;101518.06;;;18.91;59.72
66484;BME280;53299;52.160;7.556;2022-10-31T11:49:01;101518.75;;;18.93;59.75
66484;BME280;53299;52.160;7.556;2022-10-31T11:51:30;101511.78;;;18.92;59.72
66484;BME280;53299;52.160;7.556;2022-10-31T11:54:01;101499.31;;;18.93;59.90
66484;BME280;53299;52.160;7.556;2022-10-31T11:56:37;101489.63;;;18.92;59.74
66484;BME280;53299;52.160;7.556;2022-10-31T11:59:05;101489.63;;;18.92;59.87
66484;BME280;53299;52.160;7.556;2022-10-31T12:01:32;101478.03;;;18.93;59.80
66484;BME280;53299;52.160;7.556;2022-10-31T12:04:09;101473.69;;;18.92;59.84
66484;BME280;53299;52.160;7.556;2022-10-31T12:06:36;101463.03;;;18.92;59.86
66484;BME280;53299;52.160;7.556;2022-10-31T12:09:04;101466.69;;;18.91;59.89
66484;BME280;53299;52.160;7.556;2022-10-31T12:16:48;101443.59;;;18.91;59.96
66484;BME280;53299;52.160;7.556;2022-10-31T12:30:20;101401.19;;;18.90;60.01
66484;BME280;53299;52.160;7.556;2022-10-31T12:36:10;101409.00;;;18.91;60.00
66484;BME280;53299;52.160;7.556;2022-10-31T12:41:53;101411.81;;;18.90;60.06
66484;BME280;53299;52.160;7.556;2022-10-31T12:44:47;101405.53;;;18.91;60.01
66484;BME280;53299;52.160;7.556;2022-10-31T12:52:30;101386.91;;;18.91;60.04
66484;BME280;53299;52.160;7.556;2022-10-31T12:58:21;101380.75;;;18.90;60.10
66484;BME280;53299;52.160;7.556;2022-10-31T13:00:52;101363.09;;;18.89;60.14
66484;BME280;53299;52.160;7.556;2022-10-31T13:03:44;101379.91;;;18.90;60.09
66484;BME280;53299;52.160;7.556;2022-10-31T13:06:17;101370.13;;;18.90;60.16
66484;BME280;53299;52.160;7.556;2022-10-31T13:11:17;101359.47;;;18.90;60.20
66484;BME280;53299;52.160;7.556;2022-10-31T13:17:00;101347.00;;;18.91;60.18
66484;BME280;53299;52.160;7.556;2022-10-31T13:19:43;101332.00;;;18.90;60.19
66484;BME280;53299;52.160;7.556;2022-10-31T13:22:14;101315.06;;;18.91;60.23
66484;BME280;53299;52.160;7.556;2022-10-31T13:25:11;101320.56;;;18.89;60.12
66484;BME280;53299;52.160;7.556;2022-10-31T13:27:58;101316.91;;;18.90;60.11
66484;BME280;53299;52.160;7.556;2022-10-31T13:30:27;101308.94;;;18.90;60.28
66484;BME280;53299;52.160;7.556;2022-10-31T13:33:14;101304.59;;;18.89;60.22
66484;BME280;53299;52.160;7.556;2022-10-31T13:40:54;101317.75;;;18.91;60.24
66484;BME280;53299;52.160;7.556;2022-10-31T13:48:58;101310.72;;;18.90;60.19
66484;BME280;53299;52.160;7.556;2022-10-31T13:51:26;101305.41;;;18.90;60.19
66484;BME280;53299;52.160;7.556;2022-10-31T13:56:20;101294.78;;;18.90;60.33
66484;BME280;53299;52.160;7.556;2022-10-31T14:01:34;101283.16;;;18.91;60.16
66484;BME280;53299;52.160;7.556;2022-10-31T14:04:12;101277.84;;;18.91;60.18
66484;BME280;53299;52.160;7.556;2022-10-31T14:06:48;101264.53;;;18.91;60.27
66484;BME280;53299;52.160;7.556;2022-10-31T14:09:21;101268.19;;;18.90;60.27
66484;BME280;53299;52.160;7.556;2022-10-31T14:11:48;101269.84;;;18.91;60.20
66484;BME280;53299;52.160;7.556;2022-10-31T14:14:14;101265.38;;;18.91;60.34
66484;BME280;53299;52.160;7.556;2022-10-31T14:16:42;101264.53;;;18.91;60.17
66484;BME280;53299;52.160;7.556;2022-10-31T14:19:17;101264.53;;;18.91;60.26
66484;BME280;53299;52.160;7.556;2022-10-31T14:21:44;101256.56;;;18.91;60.32
66484;BME280;53299;52.160;7.556;2022-10-31T14:24:28;101246.91;;;18.90;60.28
66484;BME280;53299;52.160;7.556;2022-10-31T14:26:58;101237.94;;;18.91;60.27
66484;BME280;53299;52.160;7.556;2022-10-31T14:29:30;101241.56;;;18.90;60.34
66484;BME280;53299;52.160;7.556;2022-10-31T14:34:41;101241.56;;;18.90;60.38
66484;BME280;53299;52.160;7.556;2022-10-31T14:40:24;101214.97;;;18.90;60.33
66484;BME280;53299;52.160;7.556;2022-10-31T14:43:26;101205.19;;;18.90;60.32
66484;BME280;53299;52.160;7.556;2022-10-31T14:51:19;101192.88;;;18.89;60.39
66484;BME280;53299;52.160;7.556;2022-10-31T14:53:48;101183.06;;;18.90;60.42
66484;BME280;53299;52.160;7.556;2022-10-31T14:56:20;101184.91;;;18.89;60.48